Back to Top

Language: 

My Weather Underground Personal Weather Station Historical Data with Graphs...

Delerius Weather Station Historical Data
Daily Summary for September 14, 2017 Units:  English    Metric   Both
« Previous Day
Next Day »
Daily Weekly Monthly Yearly Custom
  High: Low: Average:
Temperature: 63.5 °F 46.9 °F 54.3 °F
Dew Point: 51.0 °F 43.0 °F 46.9 °F
Humidity: 91 % 53 % 77 %
Wind Speed: 17.0 mph 3.0 mph 8.1 mph
Wind Gust: 28.0 mph - -
Wind:- - WNW
Pressure: 29.87 in 29.49 in -
Precipitation: 0.00 in    
Historical Graphs
 
 
Tabular Data for September 14, 2017
Time Temperature Dew Point Pressure Wind Wind Speed Wind Gust Humidity Rainfall Rate (Hourly) solar Conditions
00:00 47.1 °F 43.7 °F 29.50 in WNW 3.0 mph 6.0 mph 88 % 0.00 in 0 W/m2
00:05 47.1 °F 44.0 °F 29.50 in WNW 3.0 mph 6.0 mph 89 % 0.00 in 0 W/m2
00:10 46.9 °F 43.9 °F 29.50 in WNW 4.0 mph 7.0 mph 89 % 0.00 in 0 W/m2
00:15 46.9 °F 43.9 °F 29.49 in WNW 5.0 mph 9.0 mph 89 % 0.00 in 0 W/m2
00:20 46.9 °F 44.2 °F 29.49 in WNW 5.0 mph 9.0 mph 90 % 0.00 in 0 W/m2
00:25 47.1 °F 44.3 °F 29.49 in WNW 5.0 mph 8.0 mph 90 % 0.00 in 0 W/m2
00:30 47.1 °F 44.3 °F 29.49 in WNW 5.0 mph 9.0 mph 90 % 0.00 in 0 W/m2
00:35 47.1 °F 44.3 °F 29.50 in WNW 4.0 mph 9.0 mph 90 % 0.00 in 0 W/m2
00:40 47.1 °F 44.3 °F 29.50 in WNW 4.0 mph 9.0 mph 90 % 0.00 in 0 W/m2
00:45 47.1 °F 44.6 °F 29.50 in WNW 4.0 mph 9.0 mph 91 % 0.00 in 0 W/m2
00:50 47.1 °F 44.3 °F 29.50 in WNW 4.0 mph 8.0 mph 90 % 0.00 in 0 W/m2
00:55 47.1 °F 44.3 °F 29.50 in WNW 5.0 mph 8.0 mph 90 % 0.00 in 0 W/m2
01:00 47.1 °F 44.6 °F 29.50 in West 5.0 mph 8.0 mph 91 % 0.00 in 0 W/m2
01:05 46.9 °F 44.4 °F 29.50 in WNW 4.0 mph 8.0 mph 91 % 0.00 in 0 W/m2
01:10 46.9 °F 44.4 °F 29.50 in WNW 3.0 mph 7.0 mph 91 % 0.00 in 0 W/m2
01:15 46.9 °F 44.4 °F 29.50 in WNW 4.0 mph 8.0 mph 91 % 0.00 in 0 W/m2
01:20 46.9 °F 44.4 °F 29.50 in WNW 5.0 mph 8.0 mph 91 % 0.00 in 0 W/m2
01:25 46.9 °F 44.4 °F 29.50 in WNW 5.0 mph 9.0 mph 91 % 0.00 in 0 W/m2
01:30 47.1 °F 44.6 °F 29.50 in WNW 5.0 mph 10.0 mph 91 % 0.00 in 0 W/m2
01:35 47.1 °F 44.6 °F 29.50 in WNW 5.0 mph 10.0 mph 91 % 0.00 in 0 W/m2
01:40 47.1 °F 44.6 °F 29.50 in WNW 5.0 mph 9.0 mph 91 % 0.00 in 0 W/m2
01:45 47.3 °F 44.8 °F 29.50 in NW 5.0 mph 9.0 mph 91 % 0.00 in 0 W/m2
01:50 47.3 °F 44.8 °F 29.50 in WNW 5.0 mph 9.0 mph 91 % 0.00 in 0 W/m2
01:55 47.1 °F 44.3 °F 29.50 in West 5.0 mph 10.0 mph 90 % 0.00 in 0 W/m2
02:00 47.3 °F 44.5 °F 29.51 in WNW 5.0 mph 10.0 mph 90 % 0.00 in 0 W/m2
02:05 47.3 °F 44.5 °F 29.51 in WNW 5.0 mph 9.0 mph 90 % 0.00 in 0 W/m2
02:10 47.3 °F 44.5 °F 29.51 in WNW 5.0 mph 8.0 mph 90 % 0.00 in 0 W/m2
02:15 47.3 °F 44.5 °F 29.51 in WNW 5.0 mph 9.0 mph 90 % 0.00 in 0 W/m2
02:20 47.5 °F 44.7 °F 29.51 in WNW 5.0 mph 9.0 mph 90 % 0.00 in 0 W/m2
02:25 47.5 °F 44.7 °F 29.50 in WNW 5.0 mph 9.0 mph 90 % 0.00 in 0 W/m2
02:31 47.5 °F 44.7 °F 29.50 in WNW 5.0 mph 12.0 mph 90 % 0.00 in 0 W/m2
02:35 47.7 °F 44.9 °F 29.50 in WNW 6.0 mph 12.0 mph 90 % 0.00 in 0 W/m2
02:40 47.8 °F 45.0 °F 29.51 in WNW 6.0 mph 12.0 mph 90 % 0.00 in 0 W/m2
02:45 48.0 °F 45.2 °F 29.51 in WNW 6.0 mph 11.0 mph 90 % 0.00 in 0 W/m2
02:51 48.4 °F 45.3 °F 29.51 in WNW 8.0 mph 12.0 mph 89 % 0.00 in 0 W/m2
02:56 48.6 °F 45.5 °F 29.51 in WNW 8.0 mph 16.0 mph 89 % 0.00 in 0 W/m2
03:01 48.7 °F 45.6 °F 29.51 in WNW 9.0 mph 16.0 mph 89 % 0.00 in 0 W/m2
03:06 48.9 °F 45.5 °F 29.51 in WNW 9.0 mph 16.0 mph 88 % 0.00 in 0 W/m2
03:11 49.1 °F 45.7 °F 29.51 in WNW 8.0 mph 13.0 mph 88 % 0.00 in 0 W/m2
03:16 49.3 °F 45.9 °F 29.51 in WNW 8.0 mph 15.0 mph 88 % 0.00 in 0 W/m2
03:21 49.3 °F 45.9 °F 29.51 in WNW 8.0 mph 15.0 mph 88 % 0.00 in 0 W/m2
03:26 49.3 °F 45.9 °F 29.51 in WNW 7.0 mph 13.0 mph 88 % 0.00 in 0 W/m2
03:31 49.5 °F 46.1 °F 29.51 in WNW 6.0 mph 11.0 mph 88 % 0.00 in 0 W/m2
03:36 49.5 °F 46.1 °F 29.51 in WNW 6.0 mph 11.0 mph 88 % 0.00 in 0 W/m2
03:41 49.5 °F 46.1 °F 29.51 in WNW 6.0 mph 12.0 mph 88 % 0.00 in 0 W/m2
03:46 49.6 °F 46.2 °F 29.52 in WNW 6.0 mph 12.0 mph 88 % 0.00 in 0 W/m2
03:51 49.6 °F 46.2 °F 29.52 in WNW 6.0 mph 11.0 mph 88 % 0.00 in 0 W/m2
03:56 49.6 °F 46.2 °F 29.52 in WNW 6.0 mph 11.0 mph 88 % 0.00 in 0 W/m2
04:01 49.6 °F 46.2 °F 29.52 in WNW 6.0 mph 11.0 mph 88 % 0.00 in 0 W/m2
04:06 49.6 °F 46.5 °F 29.52 in WNW 7.0 mph 11.0 mph 89 % 0.00 in 0 W/m2
04:11 49.6 °F 46.5 °F 29.52 in WNW 7.0 mph 11.0 mph 89 % 0.00 in 0 W/m2
04:16 49.6 °F 46.5 °F 29.52 in WNW 6.0 mph 11.0 mph 89 % 0.00 in 0 W/m2
04:19 49.6 °F 46.5 °F 29.53 in WNW 6.0 mph 11.0 mph 89 % 0.00 in 0 W/m2
04:21 49.6 °F 46.5 °F 29.53 in WNW 6.0 mph 11.0 mph 89 % 0.00 in 0 W/m2
04:23 49.6 °F 46.5 °F 29.53 in WNW 5.0 mph 11.0 mph 89 % 0.00 in 0 W/m2
04:26 49.6 °F 46.5 °F 29.53 in WNW 5.0 mph 9.0 mph 89 % 0.00 in 0 W/m2
04:27 49.6 °F 46.5 °F 29.53 in WNW 5.0 mph 8.0 mph 89 % 0.00 in 0 W/m2
04:30 49.6 °F 46.5 °F 29.53 in WNW 5.0 mph 9.0 mph 89 % 0.00 in 0 W/m2
04:35 49.6 °F 46.8 °F 29.53 in WNW 6.0 mph 10.0 mph 90 % 0.00 in 0 W/m2
04:37 49.6 °F 46.8 °F 29.53 in WNW 6.0 mph 10.0 mph 90 % 0.00 in 0 W/m2
04:42 49.6 °F 46.8 °F 29.53 in WNW 6.0 mph 11.0 mph 90 % 0.00 in 0 W/m2
04:47 49.6 °F 46.8 °F 29.53 in WNW 6.0 mph 11.0 mph 90 % 0.00 in 0 W/m2
04:52 49.6 °F 46.8 °F 29.53 in WNW 6.0 mph 12.0 mph 90 % 0.00 in 0 W/m2
04:57 49.6 °F 46.8 °F 29.53 in WNW 6.0 mph 12.0 mph 90 % 0.00 in 0 W/m2
05:02 49.6 °F 46.8 °F 29.53 in WNW 6.0 mph 9.0 mph 90 % 0.00 in 0 W/m2
05:07 49.6 °F 46.8 °F 29.54 in WNW 6.0 mph 10.0 mph 90 % 0.00 in 0 W/m2
05:12 49.6 °F 46.8 °F 29.54 in WNW 7.0 mph 12.0 mph 90 % 0.00 in 0 W/m2
05:17 49.8 °F 47.0 °F 29.54 in WNW 7.0 mph 12.0 mph 90 % 0.00 in 0 W/m2
05:22 49.8 °F 47.0 °F 29.54 in WNW 7.0 mph 13.0 mph 90 % 0.00 in 0 W/m2
05:27 49.8 °F 47.0 °F 29.54 in WNW 7.0 mph 13.0 mph 90 % 0.00 in 0 W/m2
05:29 49.8 °F 47.0 °F 29.54 in WNW 7.0 mph 12.0 mph 90 % 0.00 in 0 W/m2
05:34 49.8 °F 47.0 °F 29.55 in WNW 7.0 mph 12.0 mph 90 % 0.00 in 0 W/m2
05:39 50.0 °F 47.2 °F 29.55 in WNW 7.0 mph 11.0 mph 90 % 0.00 in 0 W/m2
05:44 50.0 °F 46.9 °F 29.55 in WNW 7.0 mph 13.0 mph 89 % 0.00 in 0 W/m2
05:49 50.0 °F 46.9 °F 29.55 in WNW 8.0 mph 15.0 mph 89 % 0.00 in 0 W/m2
05:54 50.2 °F 47.1 °F 29.55 in WNW 8.0 mph 15.0 mph 89 % 0.00 in 0 W/m2
05:59 50.2 °F 47.1 °F 29.56 in WNW 7.0 mph 12.0 mph 89 % 0.00 in 0 W/m2
06:04 50.2 °F 47.1 °F 29.56 in WNW 6.0 mph 11.0 mph 89 % 0.00 in 0 W/m2
06:09 50.2 °F 47.1 °F 29.56 in WNW 6.0 mph 11.0 mph 89 % 0.00 in 0 W/m2
06:14 50.2 °F 47.1 °F 29.56 in WNW 7.0 mph 12.0 mph 89 % 0.00 in 0 W/m2
06:19 50.2 °F 47.1 °F 29.56 in WNW 8.0 mph 14.0 mph 89 % 0.00 in 0 W/m2
06:24 50.2 °F 47.1 °F 29.57 in WNW 8.0 mph 14.0 mph 89 % 0.00 in 0 W/m2
06:29 50.2 °F 47.1 °F 29.57 in WNW 7.0 mph 13.0 mph 89 % 0.00 in 0 W/m2
06:34 50.2 °F 47.1 °F 29.57 in WNW 7.0 mph 14.0 mph 89 % 0.00 in 0 W/m2
06:39 50.4 °F 47.2 °F 29.57 in WNW 7.0 mph 14.0 mph 89 % 0.00 in 0 W/m2
06:44 50.4 °F 47.2 °F 29.57 in WNW 7.0 mph 13.0 mph 89 % 0.00 in 0 W/m2
06:49 50.4 °F 47.2 °F 29.58 in WNW 8.0 mph 16.0 mph 89 % 0.00 in 5 W/m2
06:54 50.4 °F 46.9 °F 29.58 in WNW 8.0 mph 16.0 mph 88 % 0.00 in 7 W/m2
06:59 50.4 °F 46.9 °F 29.58 in WNW 8.0 mph 15.0 mph 88 % 0.00 in 9 W/m2
07:04 50.5 °F 47.1 °F 29.58 in WNW 8.0 mph 13.0 mph 88 % 0.00 in 11 W/m2
07:09 50.5 °F 47.1 °F 29.58 in WNW 7.0 mph 13.0 mph 88 % 0.00 in 14 W/m2
07:14 50.5 °F 47.1 °F 29.58 in WNW 7.0 mph 13.0 mph 88 % 0.00 in 18 W/m2
07:19 50.5 °F 47.1 °F 29.59 in WNW 8.0 mph 13.0 mph 88 % 0.00 in 21 W/m2
07:24 50.5 °F 47.1 °F 29.59 in WNW 8.0 mph 14.0 mph 88 % 0.00 in 28 W/m2
07:29 50.5 °F 47.1 °F 29.59 in WNW 8.0 mph 14.0 mph 88 % 0.00 in 30 W/m2
07:34 50.7 °F 47.0 °F 29.59 in WNW 7.0 mph 13.0 mph 87 % 0.00 in 39 W/m2
07:39 50.7 °F 47.0 °F 29.59 in WNW 7.0 mph 13.0 mph 87 % 0.00 in 49 W/m2
07:44 50.9 °F 47.2 °F 29.60 in WNW 8.0 mph 13.0 mph 87 % 0.00 in 51 W/m2
07:49 51.1 °F 47.0 °F 29.60 in WNW 8.0 mph 14.0 mph 86 % 0.00 in 58 W/m2
07:54 51.3 °F 47.2 °F 29.61 in WNW 8.0 mph 14.0 mph 86 % 0.00 in 67 W/m2
08:00 51.4 °F 47.4 °F 29.61 in WNW 8.0 mph 15.0 mph 86 % 0.00 in 88 W/m2
08:05 51.6 °F 47.6 °F 29.61 in WNW 8.0 mph 15.0 mph 86 % 0.00 in 223 W/m2
08:10 52.2 °F 47.8 °F 29.61 in WNW 7.0 mph 15.0 mph 85 % 0.00 in 229 W/m2
08:15 52.7 °F 48.0 °F 29.62 in WNW 8.0 mph 15.0 mph 84 % 0.00 in 230 W/m2
08:20 53.2 °F 48.2 °F 29.62 in WNW 8.0 mph 19.0 mph 83 % 0.00 in 227 W/m2
08:25 53.4 °F 48.1 °F 29.62 in WNW 8.0 mph 19.0 mph 82 % 0.00 in 237 W/m2
08:30 54.0 °F 48.3 °F 29.62 in WNW 7.0 mph 19.0 mph 81 % 0.00 in 237 W/m2
08:35 54.1 °F 48.1 °F 29.63 in WNW 9.0 mph 20.0 mph 80 % 0.00 in 253 W/m2
08:40 54.3 °F 48.3 °F 29.63 in WNW 9.0 mph 20.0 mph 80 % 0.00 in 267 W/m2
08:45 54.5 °F 48.1 °F 29.64 in NW 8.0 mph 16.0 mph 79 % 0.00 in 274 W/m2
08:50 54.7 °F 48.0 °F 29.64 in NW 9.0 mph 18.0 mph 78 % 0.00 in 294 W/m2
08:55 54.9 °F 48.1 °F 29.64 in NW 9.0 mph 18.0 mph 78 % 0.00 in 306 W/m2
09:00 55.2 °F 48.5 °F 29.64 in NW 8.0 mph 16.0 mph 78 % 0.00 in 325 W/m2
09:05 55.6 °F 48.1 °F 29.65 in NW 8.0 mph 18.0 mph 76 % 0.00 in 350 W/m2
09:10 55.9 °F 48.1 °F 29.65 in NW 9.0 mph 18.0 mph 75 % 0.00 in 306 W/m2
09:15 56.1 °F 48.7 °F 29.66 in NW 8.0 mph 16.0 mph 76 % 0.00 in 387 W/m2
09:20 56.3 °F 48.1 °F 29.66 in NW 9.0 mph 19.0 mph 74 % 0.00 in 397 W/m2
09:25 56.7 °F 48.5 °F 29.67 in NW 9.0 mph 19.0 mph 74 % 0.00 in 431 W/m2
09:30 57.2 °F 48.6 °F 29.67 in NW 8.0 mph 19.0 mph 73 % 0.00 in 483 W/m2
09:35 57.2 °F 48.3 °F 29.67 in NW 9.0 mph 18.0 mph 72 % 0.00 in 227 W/m2
09:40 56.8 °F 47.9 °F 29.67 in NW 9.0 mph 16.0 mph 72 % 0.00 in 158 W/m2
09:45 56.7 °F 48.1 °F 29.68 in NW 7.0 mph 13.0 mph 73 % 0.00 in 517 W/m2
09:50 56.8 °F 48.6 °F 29.68 in NW 7.0 mph 13.0 mph 74 % 0.00 in 548 W/m2
09:55 57.4 °F 48.8 °F 29.68 in NW 8.0 mph 14.0 mph 73 % 0.00 in 292 W/m2
10:00 57.6 °F 48.6 °F 29.68 in NW 9.0 mph 16.0 mph 72 % 0.00 in 671 W/m2
10:05 57.7 °F 48.4 °F 29.69 in NW 9.0 mph 16.0 mph 71 % 0.00 in 330 W/m2
10:10 57.6 °F 48.2 °F 29.69 in NW 9.0 mph 20.0 mph 71 % 0.00 in 207 W/m2
10:15 57.4 °F 48.1 °F 29.70 in NW 10.0 mph 20.0 mph 71 % 0.00 in 188 W/m2
10:20 57.0 °F 48.1 °F 29.70 in NW 10.0 mph 18.0 mph 72 % 0.00 in 195 W/m2
10:25 56.8 °F 48.3 °F 29.70 in NW 8.0 mph 18.0 mph 73 % 0.00 in 496 W/m2
10:31 57.2 °F 48.6 °F 29.70 in NW 8.0 mph 14.0 mph 73 % 0.00 in 584 W/m2
10:36 57.7 °F 48.8 °F 29.70 in NW 9.0 mph 18.0 mph 72 % 0.00 in 766 W/m2
10:41 58.5 °F 49.1 °F 29.70 in NW 10.0 mph 18.0 mph 71 % 0.00 in 334 W/m2
10:46 58.6 °F 48.9 °F 29.71 in NW 9.0 mph 16.0 mph 70 % 0.00 in 606 W/m2
10:51 58.8 °F 48.3 °F 29.71 in NW 9.0 mph 21.0 mph 68 % 0.00 in 622 W/m2
10:56 59.2 °F 48.6 °F 29.71 in NW 10.0 mph 21.0 mph 68 % 0.00 in 612 W/m2
11:01 59.4 °F 48.8 °F 29.71 in NW 9.0 mph 18.0 mph 68 % 0.00 in 617 W/m2
11:06 59.5 °F 49.0 °F 29.71 in NW 10.0 mph 18.0 mph 68 % 0.00 in 628 W/m2
11:11 59.7 °F 49.1 °F 29.71 in NW 9.0 mph 16.0 mph 68 % 0.00 in 631 W/m2
11:16 60.1 °F 49.1 °F 29.71 in NW 8.0 mph 15.0 mph 67 % 0.00 in 654 W/m2
11:21 60.4 °F 49.4 °F 29.71 in NW 8.0 mph 15.0 mph 67 % 0.00 in 707 W/m2
11:26 60.3 °F 48.9 °F 29.72 in NW 9.0 mph 18.0 mph 66 % 0.00 in 675 W/m2
11:31 60.3 °F 48.9 °F 29.72 in NNW 9.0 mph 18.0 mph 66 % 0.00 in 696 W/m2
11:36 60.4 °F 48.6 °F 29.72 in NW 9.0 mph 20.0 mph 65 % 0.00 in 789 W/m2
11:41 60.4 °F 49.0 °F 29.73 in NW 8.0 mph 20.0 mph 66 % 0.00 in 206 W/m2
11:46 60.4 °F 48.6 °F 29.73 in NW 8.0 mph 18.0 mph 65 % 0.00 in 207 W/m2
11:51 60.3 °F 48.4 °F 29.73 in NW 9.0 mph 18.0 mph 65 % 0.00 in 207 W/m2
11:56 60.1 °F 49.1 °F 29.73 in NW 9.0 mph 18.0 mph 67 % 0.00 in 211 W/m2
12:01 59.9 °F 48.9 °F 29.73 in NW 8.0 mph 15.0 mph 67 % 0.00 in 693 W/m2
12:06 60.3 °F 49.3 °F 29.73 in NW 8.0 mph 15.0 mph 67 % 0.00 in 700 W/m2
12:11 61.0 °F 49.5 °F 29.74 in NW 8.0 mph 20.0 mph 66 % 0.00 in 728 W/m2
12:15 61.2 °F 48.9 °F 29.74 in WNW 9.0 mph 20.0 mph 64 % 0.00 in 701 W/m2
12:20 61.9 °F 49.1 °F 29.74 in WNW 10.0 mph 20.0 mph 63 % 0.00 in 800 W/m2
12:25 61.9 °F 48.7 °F 29.74 in WNW 10.0 mph 20.0 mph 62 % 0.00 in 761 W/m2
12:30 61.9 °F 49.1 °F 29.74 in WNW 11.0 mph 20.0 mph 63 % 0.00 in 722 W/m2
12:36 62.1 °F 49.7 °F 29.74 in WNW 11.0 mph 20.0 mph 64 % 0.00 in 740 W/m2
12:41 62.4 °F 49.2 °F 29.75 in WNW 10.0 mph 20.0 mph 62 % 0.00 in 729 W/m2
12:46 62.8 °F 49.1 °F 29.75 in WNW 11.0 mph 20.0 mph 61 % 0.00 in 684 W/m2
12:51 63.0 °F 48.4 °F 29.75 in WNW 11.0 mph 20.0 mph 59 % 0.00 in 793 W/m2
12:56 63.1 °F 49.0 °F 29.75 in WNW 11.0 mph 20.0 mph 60 % 0.00 in 863 W/m2
13:01 63.3 °F 48.7 °F 29.75 in WNW 10.0 mph 20.0 mph 59 % 0.00 in 257 W/m2
13:06 62.8 °F 48.2 °F 29.75 in WNW 11.0 mph 20.0 mph 59 % 0.00 in 220 W/m2
13:11 62.2 °F 49.1 °F 29.75 in WNW 10.0 mph 19.0 mph 62 % 0.00 in 399 W/m2
13:16 62.1 °F 48.4 °F 29.76 in WNW 9.0 mph 16.0 mph 61 % 0.00 in 318 W/m2
13:21 62.2 °F 49.1 °F 29.76 in NW 10.0 mph 18.0 mph 62 % 0.00 in 786 W/m2
13:26 63.0 °F 49.3 °F 29.76 in WNW 10.0 mph 19.0 mph 61 % 0.00 in 840 W/m2
13:31 63.0 °F 48.9 °F 29.76 in NW 10.0 mph 19.0 mph 60 % 0.00 in 223 W/m2
13:36 62.4 °F 48.3 °F 29.76 in NW 10.0 mph 25.0 mph 60 % 0.00 in 132 W/m2
13:41 61.3 °F 49.5 °F 29.77 in WNW 11.0 mph 25.0 mph 65 % 0.00 in 162 W/m2
13:46 60.3 °F 49.7 °F 29.77 in WNW 9.0 mph 21.0 mph 68 % 0.00 in 494 W/m2
13:51 60.1 °F 50.6 °F 29.77 in WNW 7.0 mph 14.0 mph 71 % 0.00 in 708 W/m2
13:56 60.8 °F 51.0 °F 29.77 in WNW 6.0 mph 11.0 mph 70 % 0.00 in 714 W/m2
14:01 61.3 °F 50.3 °F 29.77 in WNW 7.0 mph 15.0 mph 67 % 0.00 in 731 W/m2
14:06 61.5 °F 50.1 °F 29.77 in WNW 8.0 mph 15.0 mph 66 % 0.00 in 756 W/m2
14:11 62.1 °F 51.0 °F 29.77 in WNW 8.0 mph 14.0 mph 67 % 0.00 in 773 W/m2
14:16 62.6 °F 50.7 °F 29.77 in WNW 8.0 mph 14.0 mph 65 % 0.00 in 823 W/m2
14:21 63.1 °F 49.9 °F 29.77 in WNW 9.0 mph 19.0 mph 62 % 0.00 in 302 W/m2
14:26 63.3 °F 49.6 °F 29.77 in WNW 11.0 mph 21.0 mph 61 % 0.00 in 422 W/m2
14:31 63.1 °F 48.6 °F 29.78 in WNW 13.0 mph 21.0 mph 59 % 0.00 in 318 W/m2
14:36 63.0 °F 48.9 °F 29.78 in WNW 13.0 mph 22.0 mph 60 % 0.00 in 675 W/m2
14:41 63.1 °F 48.6 °F 29.78 in WNW 11.0 mph 22.0 mph 59 % 0.00 in 608 W/m2
14:46 63.3 °F 49.2 °F 29.78 in WNW 10.0 mph 18.0 mph 60 % 0.00 in 605 W/m2
14:51 63.3 °F 48.7 °F 29.78 in WNW 11.0 mph 20.0 mph 59 % 0.00 in 647 W/m2
14:56 63.5 °F 49.4 °F 29.78 in WNW 12.0 mph 22.0 mph 60 % 0.00 in 670 W/m2
15:01 63.3 °F 49.2 °F 29.78 in WNW 12.0 mph 22.0 mph 60 % 0.00 in 608 W/m2
15:07 62.2 °F 44.9 °F 29.79 in NW 14.0 mph 28.0 mph 53 % 0.00 in 76 W/m2
15:12 60.3 °F 43.5 °F 29.79 in NW 12.0 mph 28.0 mph 54 % 0.00 in 134 W/m2
15:17 59.2 °F 43.0 °F 29.79 in NW 12.0 mph 24.0 mph 55 % 0.00 in 223 W/m2
15:22 58.8 °F 44.5 °F 29.79 in NW 12.0 mph 24.0 mph 59 % 0.00 in 468 W/m2
15:27 59.0 °F 44.7 °F 29.79 in NNW 9.0 mph 19.0 mph 59 % 0.00 in 185 W/m2
15:32 58.8 °F 44.5 °F 29.79 in NW 7.0 mph 16.0 mph 59 % 0.00 in 404 W/m2
15:37 59.2 °F 45.7 °F 29.79 in NW 7.0 mph 16.0 mph 61 % 0.00 in 246 W/m2
15:42 59.4 °F 46.3 °F 29.79 in NW 6.0 mph 12.0 mph 62 % 0.00 in 455 W/m2
15:47 60.1 °F 47.0 °F 29.79 in WNW 6.0 mph 16.0 mph 62 % 0.00 in 601 W/m2
15:52 61.0 °F 47.4 °F 29.79 in WNW 8.0 mph 16.0 mph 61 % 0.00 in 548 W/m2
15:57 61.3 °F 47.8 °F 29.79 in WNW 8.0 mph 13.0 mph 61 % 0.00 in 381 W/m2
16:02 61.9 °F 47.4 °F 29.79 in WNW 10.0 mph 23.0 mph 59 % 0.00 in 557 W/m2
16:07 62.2 °F 47.3 °F 29.79 in WNW 13.0 mph 23.0 mph 58 % 0.00 in 517 W/m2
16:12 62.4 °F 46.5 °F 29.79 in WNW 14.0 mph 24.0 mph 56 % 0.00 in 471 W/m2
16:17 62.4 °F 46.0 °F 29.79 in WNW 14.0 mph 26.0 mph 55 % 0.00 in 462 W/m2
16:18 62.4 °F 46.0 °F 29.79 in WNW 14.0 mph 26.0 mph 55 % 0.00 in 459 W/m2
16:23 62.2 °F 46.8 °F 29.79 in WNW 14.0 mph 25.0 mph 57 % 0.00 in 441 W/m2
16:28 62.2 °F 46.8 °F 29.79 in WNW 13.0 mph 22.0 mph 57 % 0.00 in 457 W/m2
16:33 62.2 °F 46.8 °F 29.79 in WNW 12.0 mph 22.0 mph 57 % 0.00 in 517 W/m2
16:38 62.4 °F 47.4 °F 29.79 in West 13.0 mph 23.0 mph 58 % 0.00 in 522 W/m2
16:43 62.4 °F 47.0 °F 29.79 in West 15.0 mph 23.0 mph 57 % 0.00 in 512 W/m2
16:48 61.9 °F 46.9 °F 29.79 in WNW 13.0 mph 23.0 mph 58 % 0.00 in 109 W/m2
16:53 61.0 °F 46.5 °F 29.79 in WNW 12.0 mph 23.0 mph 59 % 0.00 in 134 W/m2
16:58 60.8 °F 46.8 °F 29.79 in West 14.0 mph 23.0 mph 60 % 0.00 in 424 W/m2
17:03 61.3 °F 47.3 °F 29.79 in WNW 14.0 mph 26.0 mph 60 % 0.00 in 369 W/m2
17:08 61.5 °F 47.5 °F 29.79 in WNW 13.0 mph 26.0 mph 60 % 0.00 in 376 W/m2
17:13 61.5 °F 47.5 °F 29.79 in WNW 13.0 mph 24.0 mph 60 % 0.00 in 309 W/m2
17:18 61.3 °F 46.4 °F 29.79 in WNW 13.0 mph 21.0 mph 58 % 0.00 in 262 W/m2
17:23 61.0 °F 46.1 °F 29.79 in WNW 13.0 mph 24.0 mph 58 % 0.00 in 107 W/m2
17:28 60.6 °F 47.1 °F 29.79 in WNW 13.0 mph 24.0 mph 61 % 0.00 in 230 W/m2
17:33 60.4 °F 47.4 °F 29.79 in WNW 13.0 mph 26.0 mph 62 % 0.00 in 169 W/m2
17:38 59.9 °F 46.4 °F 29.80 in West 16.0 mph 27.0 mph 61 % 0.00 in 134 W/m2
17:43 59.4 °F 46.3 °F 29.80 in West 17.0 mph 27.0 mph 62 % 0.00 in 91 W/m2
17:48 59.0 °F 46.8 °F 29.80 in WNW 13.0 mph 26.0 mph 64 % 0.00 in 53 W/m2
17:53 58.5 °F 47.1 °F 29.81 in WNW 11.0 mph 22.0 mph 66 % 0.00 in 40 W/m2
17:58 57.9 °F 47.0 °F 29.81 in WNW 12.0 mph 23.0 mph 67 % 0.00 in 42 W/m2
18:03 57.7 °F 47.2 °F 29.81 in WNW 12.0 mph 23.0 mph 68 % 0.00 in 51 W/m2
18:08 57.4 °F 47.3 °F 29.81 in WNW 10.0 mph 18.0 mph 69 % 0.00 in 60 W/m2
18:13 57.4 °F 47.3 °F 29.81 in WNW 9.0 mph 16.0 mph 69 % 0.00 in 77 W/m2
18:18 57.4 °F 47.3 °F 29.81 in WNW 9.0 mph 16.0 mph 69 % 0.00 in 84 W/m2
18:23 57.4 °F 47.3 °F 29.81 in WNW 10.0 mph 18.0 mph 69 % 0.00 in 77 W/m2
18:28 57.4 °F 46.9 °F 29.82 in WNW 11.0 mph 22.0 mph 68 % 0.00 in 60 W/m2
18:33 57.0 °F 46.9 °F 29.81 in WNW 11.0 mph 22.0 mph 69 % 0.00 in 49 W/m2
18:38 57.0 °F 46.9 °F 29.82 in WNW 9.0 mph 18.0 mph 69 % 0.00 in 40 W/m2
18:43 56.8 °F 47.2 °F 29.82 in WNW 9.0 mph 19.0 mph 70 % 0.00 in 56 W/m2
18:48 56.7 °F 47.4 °F 29.82 in WNW 10.0 mph 19.0 mph 71 % 0.00 in 58 W/m2
18:53 56.5 °F 47.2 °F 29.82 in WNW 9.0 mph 16.0 mph 71 % 0.00 in 39 W/m2
18:58 56.1 °F 47.2 °F 29.82 in WNW 9.0 mph 15.0 mph 72 % 0.00 in 33 W/m2
19:03 55.9 °F 47.4 °F 29.82 in WNW 9.0 mph 15.0 mph 73 % 0.00 in 28 W/m2
19:09 55.8 °F 47.2 °F 29.82 in WNW 9.0 mph 15.0 mph 73 % 0.00 in 23 W/m2
19:14 55.6 °F 47.1 °F 29.83 in WNW 8.0 mph 15.0 mph 73 % 0.00 in 19 W/m2
19:19 55.6 °F 47.1 °F 29.83 in WNW 8.0 mph 14.0 mph 73 % 0.00 in 12 W/m2
19:24 55.4 °F 46.9 °F 29.83 in WNW 9.0 mph 16.0 mph 73 % 0.00 in 9 W/m2
19:29 55.2 °F 46.7 °F 29.83 in WNW 9.0 mph 16.0 mph 73 % 0.00 in 0 W/m2
19:34 55.0 °F 46.5 °F 29.83 in WNW 9.0 mph 16.0 mph 73 % 0.00 in 0 W/m2
19:39 54.9 °F 46.7 °F 29.84 in WNW 9.0 mph 19.0 mph 74 % 0.00 in 0 W/m2
19:44 54.7 °F 46.6 °F 29.84 in WNW 9.0 mph 19.0 mph 74 % 0.00 in 0 W/m2
19:49 54.5 °F 46.7 °F 29.84 in WNW 7.0 mph 14.0 mph 75 % 0.00 in 0 W/m2
19:54 54.3 °F 46.6 °F 29.84 in WNW 6.0 mph 13.0 mph 75 % 0.00 in 0 W/m2
19:59 54.1 °F 46.7 °F 29.84 in WNW 6.0 mph 12.0 mph 76 % 0.00 in 0 W/m2
20:04 54.0 °F 46.9 °F 29.84 in WNW 6.0 mph 10.0 mph 77 % 0.00 in 0 W/m2
20:09 53.8 °F 46.7 °F 29.84 in WNW 7.0 mph 15.0 mph 77 % 0.00 in 0 W/m2
20:14 53.4 °F 46.4 °F 29.85 in WNW 8.0 mph 16.0 mph 77 % 0.00 in 0 W/m2
20:19 53.2 °F 46.2 °F 29.85 in WNW 8.0 mph 16.0 mph 77 % 0.00 in 0 W/m2
20:24 53.1 °F 46.0 °F 29.85 in WNW 8.0 mph 15.0 mph 77 % 0.00 in 0 W/m2
20:29 53.1 °F 46.0 °F 29.85 in WNW 9.0 mph 19.0 mph 77 % 0.00 in 0 W/m2
20:34 52.9 °F 45.9 °F 29.85 in WNW 10.0 mph 21.0 mph 77 % 0.00 in 0 W/m2
20:39 52.9 °F 45.9 °F 29.85 in WNW 8.0 mph 21.0 mph 77 % 0.00 in 0 W/m2
20:44 52.7 °F 46.0 °F 29.85 in WNW 8.0 mph 16.0 mph 78 % 0.00 in 0 W/m2
20:49 52.5 °F 45.9 °F 29.85 in WNW 7.0 mph 12.0 mph 78 % 0.00 in 0 W/m2
20:54 52.3 °F 46.0 °F 29.85 in WNW 6.0 mph 14.0 mph 79 % 0.00 in 0 W/m2
20:59 52.2 °F 46.2 °F 29.85 in WNW 7.0 mph 14.0 mph 80 % 0.00 in 0 W/m2
21:04 52.2 °F 46.2 °F 29.86 in WNW 7.0 mph 13.0 mph 80 % 0.00 in 0 W/m2
21:09 52.0 °F 46.0 °F 29.86 in WNW 7.0 mph 18.0 mph 80 % 0.00 in 0 W/m2
21:14 52.0 °F 46.3 °F 29.85 in WNW 8.0 mph 18.0 mph 81 % 0.00 in 0 W/m2
21:19 51.8 °F 46.2 °F 29.86 in WNW 9.0 mph 16.0 mph 81 % 0.00 in 0 W/m2
21:24 51.6 °F 46.0 °F 29.86 in WNW 8.0 mph 16.0 mph 81 % 0.00 in 0 W/m2
21:29 51.6 °F 46.0 °F 29.86 in West 7.0 mph 14.0 mph 81 % 0.00 in 0 W/m2
21:34 51.4 °F 45.8 °F 29.86 in WNW 7.0 mph 13.0 mph 81 % 0.00 in 0 W/m2
21:39 51.4 °F 45.8 °F 29.86 in WNW 6.0 mph 12.0 mph 81 % 0.00 in 0 W/m2
21:44 51.3 °F 45.6 °F 29.86 in WNW 5.0 mph 11.0 mph 81 % 0.00 in 0 W/m2
21:50 51.1 °F 45.8 °F 29.86 in WNW 6.0 mph 12.0 mph 82 % 0.00 in 0 W/m2
21:55 51.1 °F 45.8 °F 29.86 in WNW 7.0 mph 13.0 mph 82 % 0.00 in 0 W/m2
22:00 50.9 °F 45.6 °F 29.86 in WNW 8.0 mph 13.0 mph 82 % 0.00 in 0 W/m2
22:05 50.7 °F 45.4 °F 29.86 in WNW 8.0 mph 13.0 mph 82 % 0.00 in 0 W/m2
22:10 50.7 °F 45.4 °F 29.86 in WNW 7.0 mph 13.0 mph 82 % 0.00 in 0 W/m2
22:15 50.5 °F 45.2 °F 29.86 in WNW 7.0 mph 12.0 mph 82 % 0.00 in 0 W/m2
22:20 50.5 °F 45.6 °F 29.86 in WNW 7.0 mph 12.0 mph 83 % 0.00 in 0 W/m2
22:25 50.5 °F 45.6 °F 29.86 in WNW 7.0 mph 12.0 mph 83 % 0.00 in 0 W/m2
22:30 50.5 °F 45.6 °F 29.86 in WNW 7.0 mph 11.0 mph 83 % 0.00 in 0 W/m2
22:35 50.4 °F 45.4 °F 29.86 in WNW 6.0 mph 11.0 mph 83 % 0.00 in 0 W/m2
22:40 50.2 °F 45.2 °F 29.86 in WNW 6.0 mph 12.0 mph 83 % 0.00 in 0 W/m2
22:45 50.2 °F 45.5 °F 29.86 in WNW 6.0 mph 12.0 mph 84 % 0.00 in 0 W/m2
22:50 50.2 °F 45.5 °F 29.86 in WNW 6.0 mph 12.0 mph 84 % 0.00 in 0 W/m2
22:55 50.2 °F 45.5 °F 29.86 in WNW 7.0 mph 13.0 mph 84 % 0.00 in 0 W/m2
23:00 50.0 °F 45.4 °F 29.87 in WNW 7.0 mph 13.0 mph 84 % 0.00 in 0 W/m2
23:05 49.8 °F 45.2 °F 29.87 in WNW 7.0 mph 12.0 mph 84 % 0.00 in 0 W/m2
23:10 49.8 °F 45.2 °F 29.86 in WNW 6.0 mph 11.0 mph 84 % 0.00 in 0 W/m2
23:15 49.8 °F 45.2 °F 29.86 in WNW 6.0 mph 10.0 mph 84 % 0.00 in 0 W/m2
23:20 49.6 °F 45.3 °F 29.87 in WNW 6.0 mph 10.0 mph 85 % 0.00 in 0 W/m2
23:25 49.6 °F 45.3 °F 29.87 in WNW 6.0 mph 11.0 mph 85 % 0.00 in 0 W/m2
23:30 49.5 °F 45.1 °F 29.87 in WNW 6.0 mph 11.0 mph 85 % 0.00 in 0 W/m2
23:35 49.5 °F 45.1 °F 29.87 in WNW 5.0 mph 10.0 mph 85 % 0.00 in 0 W/m2
23:40 49.5 °F 45.1 °F 29.87 in West 5.0 mph 10.0 mph 85 % 0.00 in 0 W/m2
23:45 49.3 °F 45.0 °F 29.87 in West 6.0 mph 10.0 mph 85 % 0.00 in 0 W/m2
23:50 49.3 °F 45.0 °F 29.86 in West 5.0 mph 9.0 mph 85 % 0.00 in 0 W/m2
23:55 49.3 °F 45.3 °F 29.87 in WNW 5.0 mph 9.0 mph 86 % 0.00 in 0 W/m2
Delerius-Weather
Compliments of Weather Underground - 2.25 mb

Data updates at regular intervals.